createdAt,value
2024-01-15T00:00:07.638Z,21.80
2024-01-15T00:02:33.042Z,21.20
2024-01-15T00:04:55.336Z,22.40
2024-01-15T00:07:17.758Z,23.97
2024-01-15T00:09:41.574Z,18.47
2024-01-15T00:12:04.080Z,19.57
2024-01-15T00:14:26.477Z,22.37
2024-01-15T00:16:50.545Z,22.10
2024-01-15T00:19:12.994Z,22.87
2024-01-15T00:21:35.369Z,20.93
2024-01-15T00:23:57.655Z,22.30
2024-01-15T00:26:20.243Z,22.30
2024-01-15T00:28:42.526Z,21.47
2024-01-15T00:31:05.103Z,20.17
2024-01-15T00:33:27.734Z,20.50
2024-01-15T00:35:50.117Z,21.70
2024-01-15T00:38:12.348Z,19.83
2024-01-15T00:40:34.618Z,22.73
2024-01-15T00:42:56.883Z,22.10
2024-01-15T00:45:19.157Z,21.57
2024-01-15T00:47:41.531Z,21.57
2024-01-15T00:50:04.380Z,21.00
2024-01-15T00:52:26.760Z,20.90
2024-01-15T00:54:49.116Z,21.37
2024-01-15T00:57:11.492Z,22.97
2024-01-15T00:59:33.868Z,20.33
2024-01-15T01:01:56.159Z,21.50
2024-01-15T01:04:18.902Z,22.40
2024-01-15T01:06:41.714Z,21.77
2024-01-15T01:09:04.445Z,20.23
2024-01-15T01:11:26.874Z,21.90
2024-01-15T01:13:49.372Z,21.07
2024-01-15T01:16:11.900Z,21.27
2024-01-15T01:18:34.376Z,22.57
2024-01-15T01:20:56.789Z,21.03
2024-01-15T01:23:19.151Z,21.80
2024-01-15T01:25:41.448Z,21.20
2024-01-15T01:28:03.950Z,21.23
2024-01-15T01:30:26.607Z,20.50
2024-01-15T01:32:48.996Z,19.50
2024-01-15T01:35:11.308Z,21.43
2024-01-15T01:37:35.370Z,20.40
2024-01-15T01:39:57.716Z,21.60
2024-01-15T01:42:19.992Z,20.63
2024-01-15T01:44:42.499Z,21.67
2024-01-15T01:47:05.850Z,21.17
2024-01-15T01:49:29.332Z,21.70
2024-01-15T01:51:51.981Z,21.30
2024-01-15T01:54:15.173Z,22.23
2024-01-15T01:56:37.943Z,21.83
2024-01-15T01:59:00.355Z,22.50
2024-01-15T02:01:24.968Z,21.27
2024-01-15T02:03:47.523Z,22.60
2024-01-15T02:06:10.024Z,21.47
2024-01-15T02:30:13.905Z,21.30
2024-01-15T02:32:36.551Z,22.20
2024-01-15T02:34:59.288Z,22.73
2024-01-15T02:37:21.934Z,22.03
2024-01-15T02:39:44.312Z,23.80
2024-01-15T02:42:06.787Z,21.87
2024-01-15T02:44:29.292Z,22.33
2024-01-15T02:46:51.666Z,20.83
2024-01-15T02:49:14.055Z,22.93
2024-01-15T02:51:36.518Z,21.67
2024-01-15T02:53:58.881Z,20.90
2024-01-15T02:56:21.172Z,22.47
2024-01-15T02:58:43.513Z,22.93
2024-01-15T03:01:06.245Z,23.03
2024-01-15T03:03:28.897Z,21.87
2024-01-15T03:05:51.458Z,22.17
2024-01-15T03:08:15.345Z,21.83
2024-01-15T03:10:37.620Z,21.10
2024-01-15T03:12:59.905Z,23.17
2024-01-15T03:15:22.376Z,23.67
2024-01-15T03:17:44.939Z,22.60
2024-01-15T03:20:07.572Z,24.03
2024-01-15T03:22:29.846Z,22.90
2024-01-15T03:24:52.890Z,23.23
2024-01-15T03:27:15.307Z,23.77
2024-01-15T03:29:37.596Z,23.30
2024-01-15T03:31:59.891Z,23.80
2024-01-15T03:34:22.459Z,23.43
2024-01-15T03:36:44.964Z,21.83
2024-01-15T03:39:07.380Z,22.67
2024-01-15T03:41:29.823Z,22.60
2024-01-15T03:43:52.106Z,21.53
2024-01-15T03:46:14.423Z,21.07
2024-01-15T03:48:36.848Z,22.07
2024-01-15T03:50:59.307Z,21.47
2024-01-15T03:53:22.018Z,21.37
2024-01-15T03:55:44.513Z,22.80
2024-01-15T03:58:07.059Z,22.27
2024-01-15T04:00:29.346Z,20.67
2024-01-15T04:02:51.706Z,21.37
2024-01-15T04:05:14.091Z,21.73
2024-01-15T04:07:36.561Z,22.50
2024-01-15T04:09:58.863Z,22.20
2024-01-15T04:12:21.240Z,22.37
2024-01-15T04:14:43.604Z,22.87
2024-01-15T04:17:05.951Z,22.93
2024-01-15T04:19:28.494Z,23.10
2024-01-15T04:21:50.899Z,22.40
2024-01-15T04:24:13.318Z,24.40
2024-01-15T04:26:35.717Z,22.73
2024-01-15T04:28:58.838Z,20.27
2024-01-15T04:31:30.708Z,21.53
2024-01-15T04:33:53.345Z,21.53
2024-01-15T04:36:15.764Z,22.00
2024-01-15T04:38:38.191Z,20.27
2024-01-15T04:41:00.498Z,21.70
2024-01-15T04:43:22.844Z,20.93
2024-01-15T04:45:45.440Z,21.97
2024-01-15T04:48:08.166Z,23.53
2024-01-15T04:50:30.761Z,22.93
2024-01-15T04:52:54.094Z,20.73
2024-01-15T04:55:16.533Z,21.50
2024-01-15T04:57:38.904Z,23.07
2024-01-15T05:00:01.296Z,20.90
2024-01-15T05:02:23.736Z,22.23
2024-01-15T05:04:46.194Z,22.30
2024-01-15T05:07:09.617Z,22.17
2024-01-15T05:09:33.235Z,21.90
2024-01-15T05:11:55.846Z,22.70
2024-01-15T05:14:18.368Z,21.80
2024-01-15T05:16:41.235Z,23.30
2024-01-15T05:19:03.849Z,21.43
2024-01-15T05:21:26.355Z,21.63
2024-01-15T05:23:48.729Z,20.73
2024-01-15T05:26:11.325Z,20.10
2024-01-15T05:28:33.606Z,20.13
2024-01-15T05:30:56.845Z,19.73
2024-01-15T05:33:19.316Z,20.00
2024-01-15T05:35:41.740Z,20.00
2024-01-15T05:38:04.197Z,20.33
2024-01-15T05:40:27.353Z,20.30
2024-01-15T05:42:50.244Z,20.70
2024-01-15T05:45:12.648Z,19.57
2024-01-15T05:47:35.063Z,19.30
2024-01-15T05:49:58.178Z,19.00
2024-01-15T05:52:21.965Z,20.23
2024-01-15T05:54:44.425Z,21.17
2024-01-15T05:57:07.079Z,19.07
2024-01-15T05:59:32.938Z,21.23
2024-01-15T06:01:55.360Z,21.53
2024-01-15T06:04:17.937Z,19.40
2024-01-15T06:06:40.430Z,19.47
2024-01-15T06:09:06.437Z,21.47
2024-01-15T06:11:32.603Z,20.93
2024-01-15T06:13:54.842Z,20.90
2024-01-15T06:16:17.931Z,21.30
2024-01-15T06:18:40.732Z,20.83
2024-01-15T06:21:03.136Z,21.30
2024-01-15T06:23:25.419Z,20.77
2024-01-15T06:25:47.764Z,22.00
2024-01-15T06:28:10.790Z,23.07
2024-01-15T06:30:33.205Z,23.07
2024-01-15T06:32:55.694Z,22.73
2024-01-15T06:35:19.721Z,22.20
2024-01-15T06:37:44.138Z,21.30
2024-01-15T06:40:09.915Z,22.23
2024-01-15T06:42:32.418Z,22.57
2024-01-15T06:44:54.858Z,24.27
2024-01-15T06:47:18.496Z,22.83
2024-01-15T06:49:41.177Z,22.80
2024-01-15T06:52:03.764Z,21.67
2024-01-15T06:54:27.794Z,21.67
2024-01-15T06:56:50.401Z,22.27
2024-01-15T06:59:14.615Z,22.20
2024-01-15T07:01:38.156Z,22.23
2024-01-15T07:04:00.711Z,21.90
2024-01-15T07:06:23.174Z,22.23
2024-01-15T07:08:45.799Z,22.50
2024-01-15T07:11:08.469Z,22.63
2024-01-15T07:13:30.862Z,22.80
2024-01-15T07:15:53.533Z,22.30
2024-01-15T07:18:16.041Z,24.43
2024-01-15T07:20:38.408Z,22.20
2024-01-15T07:23:00.761Z,20.33
2024-01-15T07:25:23.094Z,23.40
2024-01-15T07:27:46.174Z,22.53
2024-01-15T07:30:10.690Z,23.00
2024-01-15T07:32:33.134Z,22.93
2024-01-15T07:34:55.543Z,21.20
2024-01-15T07:37:18.199Z,21.23
2024-01-15T07:39:41.386Z,21.37
2024-01-15T07:42:04.586Z,20.53
2024-01-15T07:44:26.930Z,20.23
2024-01-15T07:46:49.297Z,21.40
2024-01-15T07:49:11.721Z,21.07
2024-01-15T07:51:34.540Z,22.47
2024-01-15T07:53:57.361Z,20.93
2024-01-15T07:56:19.707Z,20.10
2024-01-15T07:58:42.111Z,21.23
2024-01-15T08:01:04.576Z,19.63
2024-01-15T08:03:27.124Z,20.53
2024-01-15T08:05:53.802Z,18.90
2024-01-15T08:08:16.128Z,19.60
2024-01-15T08:10:38.416Z,18.57
2024-01-15T08:13:00.837Z,19.37
2024-01-15T08:15:23.277Z,17.17
2024-01-15T08:17:45.681Z,16.47
2024-01-15T08:20:08.529Z,16.00
2024-01-15T08:22:32.304Z,18.23
2024-01-15T08:24:56.437Z,16.87
2024-01-15T08:27:18.938Z,13.80
2024-01-15T08:29:41.393Z,14.83
2024-01-15T08:32:04.006Z,14.57
2024-01-15T08:34:27.993Z,13.93
2024-01-15T08:36:51.529Z,15.17
2024-01-15T08:39:14.011Z,14.97
2024-01-15T08:41:36.462Z,13.90
2024-01-15T08:43:58.812Z,14.40
2024-01-15T08:46:21.170Z,13.87
2024-01-15T08:48:43.627Z,13.93
2024-01-15T08:51:06.131Z,14.27
2024-01-15T08:53:29.076Z,13.17
2024-01-15T08:55:51.900Z,14.87
2024-01-15T08:58:14.405Z,14.13
2024-01-15T09:00:36.947Z,14.80
2024-01-15T09:02:59.312Z,14.67
2024-01-15T09:05:21.877Z,14.90
2024-01-15T09:07:44.348Z,15.13
2024-01-15T09:10:07.842Z,14.67
2024-01-15T09:12:30.550Z,15.70
2024-01-15T09:14:54.885Z,15.80
2024-01-15T09:17:17.196Z,14.90
2024-01-15T09:19:43.090Z,15.97
2024-01-15T09:22:06.415Z,15.57
2024-01-15T09:24:29.533Z,16.73
2024-01-15T09:26:52.720Z,15.73
2024-01-15T09:29:20.858Z,16.93
2024-01-15T09:31:43.707Z,16.07
2024-01-15T09:34:06.181Z,16.70
2024-01-15T09:36:28.717Z,15.17
2024-01-15T09:38:51.255Z,16.77
2024-01-15T09:41:16.246Z,16.77
2024-01-15T09:43:39.238Z,16.20
2024-01-15T09:46:01.930Z,15.43
2024-01-15T09:48:24.517Z,16.47
2024-01-15T09:50:47.561Z,14.77
2024-01-15T09:53:11.022Z,14.93
2024-01-15T09:55:34.215Z,15.53
2024-01-15T09:57:57.561Z,14.20
2024-01-15T10:00:20.342Z,12.97
2024-01-15T10:02:43.153Z,13.87
2024-01-15T10:05:06.078Z,12.43
2024-01-15T10:07:29.612Z,12.60
2024-01-15T10:09:52.236Z,12.23
2024-01-15T10:12:20.233Z,12.23
2024-01-15T10:14:44.689Z,10.93
2024-01-15T10:17:19.366Z,12.97
2024-01-15T10:19:45.579Z,12.47
2024-01-15T10:22:22.026Z,12.03
2024-01-15T10:24:44.423Z,11.57
2024-01-15T10:27:08.089Z,12.17
2024-01-15T10:29:30.677Z,12.07
2024-01-15T10:31:53.242Z,11.33
2024-01-15T10:34:16.906Z,11.20
2024-01-15T10:36:41.231Z,11.43
2024-01-15T10:39:04.255Z,11.73
2024-01-15T10:41:26.880Z,13.80
2024-01-15T10:43:49.344Z,12.67
2024-01-15T10:46:11.969Z,11.73
2024-01-15T10:48:36.774Z,12.13
2024-01-15T10:50:59.958Z,12.00
2024-01-15T10:53:26.043Z,12.03
2024-01-15T10:55:49.835Z,12.50
2024-01-15T10:58:12.306Z,12.63
2024-01-15T11:00:35.843Z,12.73
2024-01-15T11:02:58.871Z,13.63
2024-01-15T11:05:23.291Z,13.10
2024-01-15T11:07:46.091Z,12.50
2024-01-15T11:10:11.353Z,12.87
2024-01-15T11:12:33.965Z,12.13
2024-01-15T11:15:05.581Z,11.77
2024-01-15T11:17:28.493Z,10.77
2024-01-15T11:19:52.621Z,11.73
2024-01-15T11:22:36.701Z,11.23
2024-01-15T11:25:14.817Z,12.90
2024-01-15T11:27:43.772Z,12.30
2024-01-15T11:30:06.633Z,11.37
2024-01-15T11:32:35.365Z,12.37
2024-01-15T11:35:02.556Z,11.83
2024-01-15T11:37:25.184Z,12.23
2024-01-15T11:39:50.732Z,11.20
2024-01-15T11:42:13.915Z,11.13
2024-01-15T11:44:36.234Z,11.77
2024-01-15T11:46:58.589Z,10.97
2024-01-15T11:49:29.150Z,10.10
2024-01-15T11:51:52.891Z,11.17
2024-01-15T11:54:16.266Z,10.97
2024-01-15T11:56:38.627Z,11.43
2024-01-15T11:59:02.498Z,9.93
2024-01-15T12:01:26.776Z,11.87
2024-01-15T12:03:49.411Z,11.40
2024-01-15T12:06:12.890Z,10.67
2024-01-15T12:08:35.883Z,9.63
2024-01-15T12:10:58.540Z,9.60
2024-01-15T12:13:22.113Z,8.80
2024-01-15T12:15:45.233Z,9.20
2024-01-15T12:18:08.241Z,9.20
2024-01-15T12:20:31.356Z,9.50
2024-01-15T12:23:01.160Z,9.87
2024-01-15T12:25:25.769Z,8.90
2024-01-15T12:27:48.270Z,9.83
2024-01-15T12:30:12.974Z,9.90
2024-01-15T12:32:36.763Z,9.50
2024-01-15T12:35:00.117Z,9.47
2024-01-15T12:37:23.248Z,10.27
2024-01-15T12:39:45.849Z,9.20
2024-01-15T12:42:08.183Z,9.40
2024-01-15T12:44:30.441Z,8.73
2024-01-15T12:46:52.885Z,9.30
2024-01-15T12:49:15.452Z,9.20
2024-01-15T12:51:37.772Z,8.50
2024-01-15T12:54:00.204Z,9.57
2024-01-15T12:56:22.514Z,7.87
2024-01-15T12:58:45.030Z,7.50
2024-01-15T13:01:07.388Z,8.37
2024-01-15T13:03:29.861Z,7.40
2024-01-15T13:05:53.813Z,7.77
2024-01-15T13:08:16.358Z,8.33
2024-01-15T13:10:38.863Z,7.90
2024-01-15T13:13:01.225Z,8.33
2024-01-15T13:15:23.702Z,7.97
2024-01-15T13:17:46.380Z,7.93
2024-01-15T13:20:09.904Z,7.47
2024-01-15T13:22:33.930Z,6.80
2024-01-15T13:24:57.628Z,6.10
2024-01-15T13:27:20.142Z,6.73
2024-01-15T13:29:42.443Z,6.80
2024-01-15T13:32:06.051Z,5.90
2024-01-15T13:34:28.513Z,5.57
2024-01-15T13:36:51.474Z,4.83
2024-01-15T13:39:14.506Z,5.50
2024-01-15T13:41:38.022Z,4.80
2024-01-15T13:44:00.801Z,4.70
2024-01-15T13:46:25.058Z,5.00
2024-01-15T13:48:47.712Z,4.67
2024-01-15T13:51:10.187Z,5.07
2024-01-15T13:53:32.475Z,4.77
2024-01-15T13:55:54.835Z,4.77
2024-01-15T13:58:18.862Z,4.47
2024-01-15T14:00:41.826Z,4.60
2024-01-15T14:03:09.880Z,4.37
2024-01-15T14:05:32.348Z,4.00
2024-01-15T14:07:54.662Z,4.33
2024-01-15T14:10:17.340Z,4.17
2024-01-15T14:12:40.778Z,4.23
2024-01-15T14:15:03.413Z,4.00
2024-01-15T14:17:25.743Z,3.50
2024-01-15T14:19:48.268Z,4.30
2024-01-15T14:22:16.402Z,3.70
2024-01-15T14:24:38.915Z,4.10
2024-01-15T14:27:01.336Z,3.90
2024-01-15T14:29:26.449Z,3.87
2024-01-15T14:31:48.872Z,4.13
2024-01-15T14:34:12.739Z,3.60
2024-01-15T14:36:35.325Z,4.47
2024-01-15T14:38:57.672Z,4.13
2024-01-15T14:41:20.099Z,4.03
2024-01-15T14:43:42.438Z,3.83
2024-01-15T14:46:04.952Z,3.93
2024-01-15T14:48:27.790Z,3.60
2024-01-15T14:50:51.932Z,3.70
2024-01-15T14:53:14.210Z,4.53
2024-01-15T14:55:36.592Z,3.97
2024-01-15T14:57:58.985Z,4.20
2024-01-15T15:00:21.558Z,4.17
2024-01-15T15:02:44.316Z,3.93
2024-01-15T15:05:07.332Z,3.93
2024-01-15T15:07:29.864Z,3.93
2024-01-15T15:09:52.634Z,4.17
2024-01-15T15:12:16.002Z,4.40
2024-01-15T15:14:45.710Z,4.27
2024-01-15T15:17:14.291Z,3.93
2024-01-15T15:19:36.868Z,4.33
2024-01-15T15:21:59.406Z,3.83
2024-01-15T15:24:21.860Z,4.20
2024-01-15T15:26:44.589Z,3.93
2024-01-15T15:29:06.997Z,4.20
2024-01-15T15:31:29.414Z,4.43
2024-01-15T15:33:51.858Z,4.07
2024-01-15T15:36:14.286Z,4.40
2024-01-15T15:38:36.700Z,4.00
2024-01-15T15:41:00.711Z,4.17
2024-01-15T15:43:23.174Z,4.30
2024-01-15T15:45:45.528Z,4.17
2024-01-15T15:48:08.104Z,4.27
2024-01-15T15:50:33.781Z,4.17
2024-01-15T15:52:57.439Z,4.17
2024-01-15T15:55:19.810Z,4.60
2024-01-15T15:57:42.300Z,4.13
2024-01-15T16:00:06.669Z,4.40
2024-01-15T16:02:37.586Z,4.27
2024-01-15T16:04:59.896Z,4.30
2024-01-15T16:07:22.275Z,4.40
2024-01-15T16:09:44.645Z,4.70
2024-01-15T16:12:07.418Z,4.23
2024-01-15T16:14:29.744Z,4.10
2024-01-15T16:23:13.208Z,4.27
2024-01-15T16:23:26.310Z,4.63
2024-01-15T16:23:41.309Z,4.23
2024-01-15T16:25:04.534Z,4.07
2024-01-15T16:27:27.965Z,4.67
2024-01-15T16:29:50.349Z,4.93
2024-01-15T16:32:13.071Z,4.37
2024-01-15T16:34:35.503Z,4.50
2024-01-15T16:36:58.183Z,4.50
2024-01-15T16:39:20.714Z,4.70
2024-01-15T16:41:43.322Z,4.20
2024-01-15T16:44:05.998Z,4.57
2024-01-15T16:46:29.367Z,4.77
2024-01-15T16:48:52.076Z,4.33
2024-01-15T16:51:14.780Z,4.80
2024-01-15T16:53:37.417Z,4.47
2024-01-15T16:55:59.968Z,4.47
2024-01-15T16:58:22.981Z,3.97
2024-01-15T17:00:45.456Z,4.00
2024-01-15T17:03:08.159Z,4.13
2024-01-15T17:05:30.574Z,4.10
2024-01-15T17:07:52.910Z,4.50
2024-01-15T17:10:16.263Z,4.10
2024-01-15T17:12:41.153Z,4.20
2024-01-15T17:15:03.829Z,4.97
2024-01-15T17:17:26.391Z,4.57
2024-01-15T17:19:48.967Z,4.57
2024-01-15T17:22:11.625Z,5.07
2024-01-15T17:24:33.993Z,5.00
2024-01-15T17:26:56.281Z,4.53
2024-01-15T17:29:18.701Z,4.20
2024-01-15T17:31:41.135Z,3.93
2024-01-15T17:34:03.680Z,3.83
2024-01-15T17:36:26.661Z,4.63
2024-01-15T17:38:49.560Z,4.20
2024-01-15T17:41:13.816Z,3.80
2024-01-15T17:43:37.888Z,4.83
2024-01-15T17:46:02.017Z,4.47
2024-01-15T17:48:24.571Z,4.23
2024-01-15T17:50:47.618Z,4.50
2024-01-15T17:53:11.900Z,4.53
2024-01-15T17:55:34.266Z,4.17
2024-01-15T17:57:57.331Z,4.30
2024-01-15T18:00:20.213Z,4.40
2024-01-15T18:02:42.674Z,4.40
2024-01-15T18:05:05.442Z,4.13
2024-01-15T18:07:27.867Z,4.10
2024-01-15T18:09:50.385Z,4.93
2024-01-15T18:12:12.721Z,3.97
2024-01-15T18:14:36.004Z,4.60
2024-01-15T18:16:58.465Z,4.83
2024-01-15T18:19:21.037Z,4.80
2024-01-15T18:21:43.385Z,4.80
2024-01-15T18:24:05.858Z,4.17
2024-01-15T18:26:28.219Z,4.20
2024-01-15T18:28:50.647Z,4.23
2024-01-15T18:31:13.448Z,5.07
2024-01-15T18:33:39.236Z,4.93
2024-01-15T18:36:03.530Z,4.37
2024-01-15T18:38:25.891Z,4.37
2024-01-15T18:40:48.262Z,4.67
2024-01-15T18:43:10.885Z,4.63
2024-01-15T18:45:33.149Z,4.83
2024-01-15T18:47:55.667Z,4.77
2024-01-15T18:50:18.113Z,4.53
2024-01-15T18:52:41.039Z,5.27
2024-01-15T18:55:04.062Z,5.00
2024-01-15T18:57:29.345Z,4.70
2024-01-15T18:59:52.420Z,4.63
2024-01-15T19:02:15.431Z,4.73
2024-01-15T19:04:37.734Z,4.70
2024-01-15T19:07:00.033Z,4.93
2024-01-15T19:09:22.308Z,4.93
2024-01-15T19:11:44.638Z,4.93
2024-01-15T19:14:07.301Z,4.77
2024-01-15T19:16:29.766Z,5.70
2024-01-15T19:18:53.391Z,5.37
2024-01-15T19:21:16.247Z,5.57
2024-01-15T19:23:38.749Z,5.60
2024-01-15T19:26:01.649Z,5.93
2024-01-15T19:28:24.478Z,5.50
2024-01-15T19:30:50.591Z,5.53
2024-01-15T19:33:13.262Z,5.33
2024-01-15T19:35:36.714Z,4.97
2024-01-15T19:37:59.310Z,5.73
2024-01-15T19:40:21.974Z,5.80
2024-01-15T19:42:44.309Z,5.97
2024-01-15T19:45:07.316Z,5.57
2024-01-15T19:47:29.868Z,6.13
2024-01-15T19:49:53.338Z,5.70
2024-01-15T19:52:16.245Z,5.67
2024-01-15T19:54:39.005Z,4.77
2024-01-15T19:57:07.066Z,5.90
2024-01-15T19:59:36.150Z,5.80
2024-01-15T20:01:59.899Z,5.70
2024-01-15T20:04:22.193Z,4.93
2024-01-15T20:06:44.555Z,5.43
2024-01-15T20:09:09.679Z,5.40
2024-01-15T20:11:32.289Z,6.07
2024-01-15T20:13:54.795Z,7.57
2024-01-15T20:16:17.052Z,5.47
2024-01-15T20:18:39.663Z,5.03
2024-01-15T20:21:03.408Z,5.03
2024-01-15T20:23:25.749Z,4.73
2024-01-15T20:25:48.099Z,6.67
2024-01-15T20:28:11.437Z,7.67
2024-01-15T20:30:33.881Z,5.57
2024-01-15T20:32:57.237Z,5.97
2024-01-15T20:35:22.257Z,5.57
2024-01-15T20:37:48.429Z,6.13
2024-01-15T20:40:11.605Z,5.70
2024-01-15T20:42:33.885Z,5.70
2024-01-15T20:44:56.264Z,4.83
2024-01-15T20:47:18.643Z,5.30
2024-01-15T20:49:40.949Z,5.70
2024-01-15T20:52:04.572Z,5.53
2024-01-15T20:54:26.838Z,5.20
2024-01-15T20:56:49.314Z,6.00
2024-01-15T20:59:12.009Z,5.57
2024-01-15T21:01:34.366Z,6.13
2024-01-15T21:03:56.845Z,5.50
2024-01-15T21:06:19.274Z,4.83
2024-01-15T21:08:47.056Z,5.47
2024-01-15T21:11:09.418Z,5.60
2024-01-15T21:13:31.809Z,5.83
2024-01-15T21:15:54.427Z,6.17
2024-01-15T21:18:18.497Z,6.97
2024-01-15T21:20:41.298Z,6.60
2024-01-15T21:23:04.081Z,8.00
2024-01-15T21:25:26.390Z,6.77
2024-01-15T21:27:48.966Z,5.87
2024-01-15T21:30:12.306Z,6.67
2024-01-15T21:32:34.790Z,5.87
2024-01-15T21:34:57.121Z,6.37
2024-01-15T21:37:19.465Z,6.47
2024-01-15T21:39:43.991Z,5.90
2024-01-15T21:42:06.361Z,7.43
2024-01-15T21:44:28.719Z,5.83
2024-01-15T21:46:51.483Z,6.77
2024-01-15T21:49:13.818Z,6.30
2024-01-15T21:51:36.594Z,5.97
2024-01-15T21:53:59.506Z,6.63
2024-01-15T21:56:22.004Z,6.43
2024-01-15T21:58:44.302Z,6.37
2024-01-15T22:01:09.489Z,6.30
2024-01-15T22:03:31.931Z,5.93
2024-01-15T22:05:56.273Z,6.73
2024-01-15T22:08:19.110Z,6.10
2024-01-15T22:10:41.811Z,6.17
2024-01-15T22:13:04.089Z,7.47
2024-01-15T22:15:27.492Z,6.13
2024-01-15T22:17:49.941Z,6.80
2024-01-15T22:20:13.346Z,6.17
2024-01-15T22:22:36.113Z,6.80
2024-01-15T22:24:58.366Z,7.17
2024-01-15T22:27:20.683Z,7.07
2024-01-15T22:29:44.169Z,6.53
2024-01-15T22:32:06.592Z,6.83
2024-01-15T22:34:29.234Z,6.67
2024-01-15T22:36:51.688Z,6.40
2024-01-15T22:39:15.017Z,6.60
2024-01-15T22:41:37.396Z,7.03
2024-01-15T22:43:59.804Z,6.73
2024-01-15T22:46:22.155Z,7.00
2024-01-15T22:48:44.979Z,7.13
2024-01-15T22:51:08.134Z,6.70
2024-01-15T22:53:30.563Z,7.53
2024-01-15T22:55:56.239Z,7.03
2024-01-15T22:58:18.573Z,7.03
2024-01-15T23:00:45.425Z,6.47
2024-01-15T23:03:07.984Z,6.47
2024-01-15T23:05:31.056Z,6.80
2024-01-15T23:07:53.439Z,6.83
2024-01-15T23:10:15.813Z,7.07
2024-01-15T23:12:38.994Z,7.63
2024-01-15T23:15:01.334Z,6.63
2024-01-15T23:17:23.896Z,6.83
2024-01-15T23:19:46.277Z,7.00
2024-01-15T23:22:08.571Z,6.90
2024-01-15T23:24:31.309Z,6.90
2024-01-15T23:26:54.051Z,6.90
2024-01-15T23:29:18.517Z,7.30
2024-01-15T23:31:41.734Z,6.60
2024-01-15T23:34:04.016Z,6.33
2024-01-15T23:36:27.703Z,6.70
2024-01-15T23:38:50.564Z,6.77
2024-01-15T23:41:19.793Z,6.57
2024-01-15T23:43:42.447Z,6.93
2024-01-15T23:46:13.998Z,7.33
2024-01-15T23:48:38.008Z,6.63
2024-01-15T23:51:04.050Z,6.70
2024-01-15T23:53:26.461Z,7.10
2024-01-15T23:55:48.915Z,7.00
2024-01-15T23:58:11.495Z,7.80
